sensor_id;sensor_type;location;lat;lon;timestamp;P1;durP1;ratioP1;P2;durP2;ratioP2
57395;SDS011;43222;52.912;6.940;2023-04-12T00:01:03;15.43;;;2.80;;
57395;SDS011;43222;52.912;6.940;2023-04-12T00:03:30;10.77;;;2.90;;
57395;SDS011;43222;52.912;6.940;2023-04-12T00:05:58;13.48;;;2.47;;
57395;SDS011;43222;52.912;6.940;2023-04-12T00:08:27;12.50;;;2.72;;
57395;SDS011;43222;52.912;6.940;2023-04-12T00:10:57;15.32;;;3.10;;
57395;SDS011;43222;52.912;6.940;2023-04-12T00:13:23;13.13;;;2.58;;
57395;SDS011;43222;52.912;6.940;2023-04-12T00:15:50;13.13;;;2.67;;
57395;SDS011;43222;52.912;6.940;2023-04-12T00:18:16;12.05;;;2.58;;
57395;SDS011;43222;52.912;6.940;2023-04-12T00:20:42;11.45;;;2.95;;
57395;SDS011;43222;52.912;6.940;2023-04-12T00:23:09;13.20;;;2.80;;
57395;SDS011;43222;52.912;6.940;2023-04-12T00:25:37;9.75;;;2.65;;
57395;SDS011;43222;52.912;6.940;2023-04-12T00:28:03;12.55;;;2.65;;
57395;SDS011;43222;52.912;6.940;2023-04-12T00:30:30;10.95;;;2.60;;
57395;SDS011;43222;52.912;6.940;2023-04-12T00:32:56;15.48;;;2.92;;
57395;SDS011;43222;52.912;6.940;2023-04-12T00:35:22;13.35;;;2.70;;
57395;SDS011;43222;52.912;6.940;2023-04-12T00:37:49;11.23;;;2.72;;
57395;SDS011;43222;52.912;6.940;2023-04-12T00:40:15;13.07;;;2.75;;
57395;SDS011;43222;52.912;6.940;2023-04-12T00:42:41;12.68;;;2.53;;
57395;SDS011;43222;52.912;6.940;2023-04-12T00:45:07;12.10;;;2.72;;
57395;SDS011;43222;52.912;6.940;2023-04-12T00:47:34;11.73;;;2.40;;
57395;SDS011;43222;52.912;6.940;2023-04-12T00:50:01;14.60;;;2.70;;
57395;SDS011;43222;52.912;6.940;2023-04-12T00:52:29;10.80;;;2.50;;
57395;SDS011;43222;52.912;6.940;2023-04-12T00:54:58;8.65;;;2.50;;
57395;SDS011;43222;52.912;6.940;2023-04-12T00:57:24;10.70;;;3.17;;
57395;SDS011;43222;52.912;6.940;2023-04-12T00:59:51;8.95;;;2.55;;
57395;SDS011;43222;52.912;6.940;2023-04-12T01:02:17;10.82;;;3.00;;
57395;SDS011;43222;52.912;6.940;2023-04-12T01:04:44;9.38;;;2.40;;
57395;SDS011;43222;52.912;6.940;2023-04-12T01:12:52;13.48;;;3.47;;
57395;SDS011;43222;52.912;6.940;2023-04-12T01:17:51;13.07;;;3.05;;
57395;SDS011;43222;52.912;6.940;2023-04-12T01:20:22;10.40;;;3.20;;
57395;SDS011;43222;52.912;6.940;2023-04-12T01:22:59;19.23;;;3.53;;
57395;SDS011;43222;52.912;6.940;2023-04-12T01:25:33;11.77;;;2.92;;
57395;SDS011;43222;52.912;6.940;2023-04-12T01:28:03;12.25;;;3.10;;
57395;SDS011;43222;52.912;6.940;2023-04-12T01:30:29;13.43;;;3.40;;
57395;SDS011;43222;52.912;6.940;2023-04-12T01:32:58;14.00;;;3.28;;
57395;SDS011;43222;52.912;6.940;2023-04-12T01:35:31;11.07;;;3.25;;
57395;SDS011;43222;52.912;6.940;2023-04-12T01:37:57;12.82;;;3.58;;
57395;SDS011;43222;52.912;6.940;2023-04-12T01:40:25;11.27;;;3.00;;
57395;SDS011;43222;52.912;6.940;2023-04-12T01:43:13;13.23;;;4.25;;
57395;SDS011;43222;52.912;6.940;2023-04-12T01:45:39;14.13;;;3.47;;
57395;SDS011;43222;52.912;6.940;2023-04-12T01:48:09;14.38;;;3.60;;
57395;SDS011;43222;52.912;6.940;2023-04-12T01:55:57;13.43;;;3.85;;
57395;SDS011;43222;52.912;6.940;2023-04-12T01:58:24;11.25;;;3.28;;
57395;SDS011;43222;52.912;6.940;2023-04-12T02:00:51;13.00;;;3.72;;
57395;SDS011;43222;52.912;6.940;2023-04-12T02:03:18;14.73;;;3.80;;
57395;SDS011;43222;52.912;6.940;2023-04-12T02:05:45;16.02;;;3.53;;
57395;SDS011;43222;52.912;6.940;2023-04-12T02:08:11;14.13;;;3.65;;
57395;SDS011;43222;52.912;6.940;2023-04-12T02:10:37;13.15;;;3.47;;
57395;SDS011;43222;52.912;6.940;2023-04-12T02:13:04;14.73;;;3.67;;
57395;SDS011;43222;52.912;6.940;2023-04-12T02:15:30;14.77;;;4.28;;
57395;SDS011;43222;52.912;6.940;2023-04-12T02:17:57;14.80;;;3.45;;
57395;SDS011;43222;52.912;6.940;2023-04-12T02:20:24;15.98;;;3.70;;
57395;SDS011;43222;52.912;6.940;2023-04-12T02:22:51;14.70;;;3.60;;
57395;SDS011;43222;52.912;6.940;2023-04-12T02:25:17;13.27;;;4.20;;
57395;SDS011;43222;52.912;6.940;2023-04-12T02:27:43;13.98;;;3.30;;
57395;SDS011;43222;52.912;6.940;2023-04-12T02:30:10;14.10;;;3.88;;
57395;SDS011;43222;52.912;6.940;2023-04-12T02:32:36;11.10;;;3.53;;
57395;SDS011;43222;52.912;6.940;2023-04-12T02:35:12;11.10;;;3.20;;
57395;SDS011;43222;52.912;6.940;2023-04-12T02:37:38;17.38;;;4.05;;
57395;SDS011;43222;52.912;6.940;2023-04-12T02:40:05;15.00;;;3.83;;
57395;SDS011;43222;52.912;6.940;2023-04-12T02:42:34;12.13;;;3.45;;
57395;SDS011;43222;52.912;6.940;2023-04-12T02:45:00;15.18;;;3.70;;
57395;SDS011;43222;52.912;6.940;2023-04-12T02:47:27;13.57;;;3.38;;
57395;SDS011;43222;52.912;6.940;2023-04-12T02:49:54;12.27;;;3.25;;
57395;SDS011;43222;52.912;6.940;2023-04-12T02:52:20;12.60;;;3.60;;
57395;SDS011;43222;52.912;6.940;2023-04-12T02:54:50;16.45;;;4.00;;
57395;SDS011;43222;52.912;6.940;2023-04-12T02:57:16;14.70;;;4.03;;
57395;SDS011;43222;52.912;6.940;2023-04-12T02:59:45;11.85;;;3.70;;
57395;SDS011;43222;52.912;6.940;2023-04-12T03:02:11;11.23;;;3.58;;
57395;SDS011;43222;52.912;6.940;2023-04-12T03:04:37;9.63;;;2.83;;
57395;SDS011;43222;52.912;6.940;2023-04-12T03:07:04;15.52;;;3.60;;
57395;SDS011;43222;52.912;6.940;2023-04-12T03:09:30;12.57;;;3.10;;
57395;SDS011;43222;52.912;6.940;2023-04-12T03:11:57;14.02;;;3.40;;
57395;SDS011;43222;52.912;6.940;2023-04-12T03:14:23;9.38;;;3.10;;
57395;SDS011;43222;52.912;6.940;2023-04-12T03:16:49;10.63;;;3.00;;
57395;SDS011;43222;52.912;6.940;2023-04-12T03:19:17;11.90;;;3.10;;
57395;SDS011;43222;52.912;6.940;2023-04-12T03:21:43;10.90;;;3.38;;
57395;SDS011;43222;52.912;6.940;2023-04-12T03:24:10;13.25;;;3.28;;
57395;SDS011;43222;52.912;6.940;2023-04-12T03:26:36;14.65;;;3.55;;
57395;SDS011;43222;52.912;6.940;2023-04-12T03:29:02;9.75;;;4.15;;
57395;SDS011;43222;52.912;6.940;2023-04-12T03:31:35;11.02;;;2.80;;
57395;SDS011;43222;52.912;6.940;2023-04-12T03:34:01;11.10;;;2.97;;
57395;SDS011;43222;52.912;6.940;2023-04-12T03:36:28;10.40;;;2.92;;
57395;SDS011;43222;52.912;6.940;2023-04-12T03:38:54;7.97;;;2.55;;
57395;SDS011;43222;52.912;6.940;2023-04-12T03:41:21;8.00;;;2.45;;
57395;SDS011;43222;52.912;6.940;2023-04-12T03:43:50;10.60;;;2.65;;
57395;SDS011;43222;52.912;6.940;2023-04-12T03:46:16;9.77;;;3.22;;
57395;SDS011;43222;52.912;6.940;2023-04-12T03:48:42;12.18;;;3.33;;
57395;SDS011;43222;52.912;6.940;2023-04-12T03:51:08;10.27;;;3.03;;
57395;SDS011;43222;52.912;6.940;2023-04-12T03:53:39;16.45;;;3.53;;
57395;SDS011;43222;52.912;6.940;2023-04-12T03:56:05;11.95;;;3.72;;
57395;SDS011;43222;52.912;6.940;2023-04-12T03:58:31;9.95;;;3.75;;
57395;SDS011;43222;52.912;6.940;2023-04-12T04:00:58;11.23;;;3.65;;
57395;SDS011;43222;52.912;6.940;2023-04-12T04:03:26;12.43;;;3.78;;
57395;SDS011;43222;52.912;6.940;2023-04-12T04:05:53;12.88;;;3.65;;
57395;SDS011;43222;52.912;6.940;2023-04-12T04:08:20;10.75;;;3.20;;
57395;SDS011;43222;52.912;6.940;2023-04-12T04:10:46;9.02;;;3.40;;
57395;SDS011;43222;52.912;6.940;2023-04-12T04:13:12;10.18;;;3.15;;
57395;SDS011;43222;52.912;6.940;2023-04-12T04:15:38;10.95;;;3.00;;
57395;SDS011;43222;52.912;6.940;2023-04-12T04:18:04;12.07;;;3.30;;
57395;SDS011;43222;52.912;6.940;2023-04-12T04:20:30;12.30;;;3.58;;
57395;SDS011;43222;52.912;6.940;2023-04-12T04:22:57;13.25;;;3.70;;
57395;SDS011;43222;52.912;6.940;2023-04-12T04:25:23;11.27;;;3.47;;
57395;SDS011;43222;52.912;6.940;2023-04-12T04:27:54;11.90;;;3.53;;
57395;SDS011;43222;52.912;6.940;2023-04-12T04:30:20;14.38;;;3.50;;
57395;SDS011;43222;52.912;6.940;2023-04-12T04:32:47;10.35;;;3.10;;
57395;SDS011;43222;52.912;6.940;2023-04-12T04:35:14;10.25;;;3.20;;
57395;SDS011;43222;52.912;6.940;2023-04-12T04:37:41;12.40;;;3.47;;
57395;SDS011;43222;52.912;6.940;2023-04-12T04:40:08;10.90;;;3.13;;
57395;SDS011;43222;52.912;6.940;2023-04-12T04:42:38;10.48;;;2.95;;
57395;SDS011;43222;52.912;6.940;2023-04-12T04:45:06;9.88;;;2.53;;
57395;SDS011;43222;52.912;6.940;2023-04-12T04:47:38;12.55;;;3.33;;
57395;SDS011;43222;52.912;6.940;2023-04-12T04:50:05;9.38;;;2.75;;
57395;SDS011;43222;52.912;6.940;2023-04-12T04:52:31;10.15;;;3.33;;
57395;SDS011;43222;52.912;6.940;2023-04-12T04:54:57;9.70;;;2.63;;
57395;SDS011;43222;52.912;6.940;2023-04-12T04:57:24;10.18;;;2.85;;
57395;SDS011;43222;52.912;6.940;2023-04-12T04:59:50;11.25;;;2.60;;
57395;SDS011;43222;52.912;6.940;2023-04-12T05:02:17;10.15;;;2.42;;
57395;SDS011;43222;52.912;6.940;2023-04-12T05:04:43;8.75;;;2.50;;
57395;SDS011;43222;52.912;6.940;2023-04-12T05:07:09;8.48;;;2.60;;
57395;SDS011;43222;52.912;6.940;2023-04-12T05:09:37;7.85;;;2.38;;
57395;SDS011;43222;52.912;6.940;2023-04-12T05:12:03;12.02;;;2.92;;
57395;SDS011;43222;52.912;6.940;2023-04-12T05:14:29;10.07;;;2.55;;
57395;SDS011;43222;52.912;6.940;2023-04-12T05:16:55;11.88;;;2.20;;
57395;SDS011;43222;52.912;6.940;2023-04-12T05:19:21;9.13;;;2.25;;
57395;SDS011;43222;52.912;6.940;2023-04-12T05:21:48;8.85;;;2.60;;
57395;SDS011;43222;52.912;6.940;2023-04-12T05:24:14;11.38;;;2.33;;
57395;SDS011;43222;52.912;6.940;2023-04-12T05:26:40;10.15;;;2.60;;
57395;SDS011;43222;52.912;6.940;2023-04-12T05:29:09;8.88;;;2.50;;
57395;SDS011;43222;52.912;6.940;2023-04-12T05:31:35;11.30;;;2.25;;
57395;SDS011;43222;52.912;6.940;2023-04-12T05:34:01;11.20;;;2.55;;
57395;SDS011;43222;52.912;6.940;2023-04-12T05:36:27;8.25;;;2.17;;
57395;SDS011;43222;52.912;6.940;2023-04-12T05:38:53;8.38;;;2.67;;
57395;SDS011;43222;52.912;6.940;2023-04-12T05:41:19;14.60;;;2.80;;
57395;SDS011;43222;52.912;6.940;2023-04-12T05:43:45;12.55;;;2.50;;
57395;SDS011;43222;52.912;6.940;2023-04-12T05:46:11;10.25;;;2.67;;
57395;SDS011;43222;52.912;6.940;2023-04-12T05:48:37;10.25;;;2.67;;
57395;SDS011;43222;52.912;6.940;2023-04-12T05:51:03;10.38;;;2.60;;
57395;SDS011;43222;52.912;6.940;2023-04-12T05:53:29;9.27;;;2.50;;
57395;SDS011;43222;52.912;6.940;2023-04-12T05:55:56;10.50;;;2.65;;
57395;SDS011;43222;52.912;6.940;2023-04-12T05:58:22;10.98;;;2.70;;
57395;SDS011;43222;52.912;6.940;2023-04-12T06:00:48;10.73;;;2.63;;
57395;SDS011;43222;52.912;6.940;2023-04-12T06:03:15;8.57;;;2.70;;
57395;SDS011;43222;52.912;6.940;2023-04-12T06:05:41;10.68;;;2.97;;
57395;SDS011;43222;52.912;6.940;2023-04-12T06:08:07;9.93;;;2.92;;
57395;SDS011;43222;52.912;6.940;2023-04-12T06:10:34;10.85;;;2.80;;
57395;SDS011;43222;52.912;6.940;2023-04-12T06:13:00;9.10;;;2.70;;
57395;SDS011;43222;52.912;6.940;2023-04-12T06:15:26;11.38;;;2.75;;
57395;SDS011;43222;52.912;6.940;2023-04-12T06:17:52;8.75;;;2.80;;
57395;SDS011;43222;52.912;6.940;2023-04-12T06:20:19;10.50;;;3.10;;
57395;SDS011;43222;52.912;6.940;2023-04-12T06:22:45;10.90;;;2.78;;
57395;SDS011;43222;52.912;6.940;2023-04-12T06:25:11;8.18;;;2.55;;
57395;SDS011;43222;52.912;6.940;2023-04-12T06:27:37;9.40;;;2.95;;
57395;SDS011;43222;52.912;6.940;2023-04-12T06:30:03;10.95;;;2.90;;
57395;SDS011;43222;52.912;6.940;2023-04-12T06:32:29;10.77;;;2.67;;
57395;SDS011;43222;52.912;6.940;2023-04-12T06:34:55;14.27;;;3.17;;
57395;SDS011;43222;52.912;6.940;2023-04-12T06:37:22;10.18;;;2.63;;
57395;SDS011;43222;52.912;6.940;2023-04-12T06:39:48;10.30;;;3.50;;
57395;SDS011;43222;52.912;6.940;2023-04-12T06:42:14;9.68;;;2.70;;
57395;SDS011;43222;52.912;6.940;2023-04-12T06:44:40;9.70;;;2.50;;
57395;SDS011;43222;52.912;6.940;2023-04-12T06:47:06;10.00;;;2.65;;
57395;SDS011;43222;52.912;6.940;2023-04-12T06:49:33;8.75;;;2.63;;
57395;SDS011;43222;52.912;6.940;2023-04-12T06:51:59;8.98;;;2.67;;
57395;SDS011;43222;52.912;6.940;2023-04-12T06:54:25;9.55;;;2.75;;
57395;SDS011;43222;52.912;6.940;2023-04-12T06:56:51;7.70;;;2.22;;
57395;SDS011;43222;52.912;6.940;2023-04-12T06:59:17;9.63;;;2.63;;
57395;SDS011;43222;52.912;6.940;2023-04-12T07:01:43;10.32;;;2.88;;
57395;SDS011;43222;52.912;6.940;2023-04-12T07:04:10;8.18;;;2.40;;
57395;SDS011;43222;52.912;6.940;2023-04-12T07:06:36;7.07;;;2.60;;
57395;SDS011;43222;52.912;6.940;2023-04-12T07:09:02;9.60;;;2.80;;
57395;SDS011;43222;52.912;6.940;2023-04-12T07:11:28;8.55;;;2.50;;
57395;SDS011;43222;52.912;6.940;2023-04-12T07:13:55;11.73;;;2.85;;
57395;SDS011;43222;52.912;6.940;2023-04-12T07:16:23;10.25;;;2.97;;
57395;SDS011;43222;52.912;6.940;2023-04-12T07:18:49;9.57;;;2.95;;
57395;SDS011;43222;52.912;6.940;2023-04-12T07:21:15;10.18;;;3.17;;
57395;SDS011;43222;52.912;6.940;2023-04-12T07:23:42;8.32;;;2.92;;
57395;SDS011;43222;52.912;6.940;2023-04-12T07:26:08;9.23;;;2.95;;
57395;SDS011;43222;52.912;6.940;2023-04-12T07:28:34;10.50;;;3.65;;
57395;SDS011;43222;52.912;6.940;2023-04-12T07:31:05;9.65;;;2.85;;
57395;SDS011;43222;52.912;6.940;2023-04-12T07:33:31;10.35;;;2.80;;
57395;SDS011;43222;52.912;6.940;2023-04-12T07:35:59;11.07;;;3.10;;
57395;SDS011;43222;52.912;6.940;2023-04-12T07:38:25;7.88;;;2.70;;
57395;SDS011;43222;52.912;6.940;2023-04-12T07:40:53;9.10;;;3.22;;
57395;SDS011;43222;52.912;6.940;2023-04-12T07:43:19;10.10;;;3.22;;
57395;SDS011;43222;52.912;6.940;2023-04-12T07:45:45;8.20;;;3.50;;
57395;SDS011;43222;52.912;6.940;2023-04-12T07:48:11;8.13;;;3.25;;
57395;SDS011;43222;52.912;6.940;2023-04-12T07:50:37;10.65;;;3.33;;
57395;SDS011;43222;52.912;6.940;2023-04-12T07:53:21;8.05;;;3.30;;
57395;SDS011;43222;52.912;6.940;2023-04-12T07:55:47;9.65;;;3.20;;
57395;SDS011;43222;52.912;6.940;2023-04-12T07:58:14;9.10;;;3.70;;
57395;SDS011;43222;52.912;6.940;2023-04-12T08:00:41;7.82;;;3.17;;
57395;SDS011;43222;52.912;6.940;2023-04-12T08:03:07;7.53;;;3.42;;
57395;SDS011;43222;52.912;6.940;2023-04-12T08:05:33;7.55;;;3.28;;
57395;SDS011;43222;52.912;6.940;2023-04-12T08:08:00;9.15;;;3.45;;
57395;SDS011;43222;52.912;6.940;2023-04-12T08:10:26;7.60;;;3.20;;
57395;SDS011;43222;52.912;6.940;2023-04-12T08:12:52;7.10;;;3.55;;
57395;SDS011;43222;52.912;6.940;2023-04-12T08:15:18;8.70;;;3.15;;
57395;SDS011;43222;52.912;6.940;2023-04-12T08:17:44;9.52;;;3.50;;
57395;SDS011;43222;52.912;6.940;2023-04-12T08:20:11;7.82;;;3.40;;
57395;SDS011;43222;52.912;6.940;2023-04-12T08:22:37;8.57;;;3.80;;
57395;SDS011;43222;52.912;6.940;2023-04-12T08:25:04;7.32;;;3.55;;
57395;SDS011;43222;52.912;6.940;2023-04-12T08:27:30;8.13;;;3.80;;
57395;SDS011;43222;52.912;6.940;2023-04-12T08:29:56;8.48;;;3.92;;
57395;SDS011;43222;52.912;6.940;2023-04-12T08:32:22;7.28;;;3.53;;
57395;SDS011;43222;52.912;6.940;2023-04-12T08:34:48;7.28;;;3.33;;
57395;SDS011;43222;52.912;6.940;2023-04-12T08:37:14;8.63;;;3.10;;
57395;SDS011;43222;52.912;6.940;2023-04-12T08:39:41;7.15;;;3.08;;
57395;SDS011;43222;52.912;6.940;2023-04-12T08:42:07;8.48;;;3.20;;
57395;SDS011;43222;52.912;6.940;2023-04-12T08:44:34;6.63;;;2.72;;
57395;SDS011;43222;52.912;6.940;2023-04-12T08:47:04;5.95;;;2.75;;
57395;SDS011;43222;52.912;6.940;2023-04-12T08:49:31;5.93;;;2.95;;
57395;SDS011;43222;52.912;6.940;2023-04-12T08:52:02;7.05;;;2.78;;
57395;SDS011;43222;52.912;6.940;2023-04-12T08:54:29;7.90;;;2.85;;
57395;SDS011;43222;52.912;6.940;2023-04-12T08:56:57;7.00;;;2.78;;
57395;SDS011;43222;52.912;6.940;2023-04-12T08:59:24;7.40;;;2.60;;
57395;SDS011;43222;52.912;6.940;2023-04-12T09:01:51;5.15;;;2.50;;
57395;SDS011;43222;52.912;6.940;2023-04-12T09:04:18;6.40;;;2.45;;
57395;SDS011;43222;52.912;6.940;2023-04-12T09:06:44;6.20;;;2.50;;
57395;SDS011;43222;52.912;6.940;2023-04-12T09:09:10;5.13;;;2.13;;
57395;SDS011;43222;52.912;6.940;2023-04-12T09:11:38;7.00;;;2.15;;
57395;SDS011;43222;52.912;6.940;2023-04-12T09:14:19;5.75;;;2.42;;
57395;SDS011;43222;52.912;6.940;2023-04-12T09:16:46;8.30;;;2.40;;
57395;SDS011;43222;52.912;6.940;2023-04-12T09:19:12;6.85;;;2.60;;
57395;SDS011;43222;52.912;6.940;2023-04-12T09:21:54;4.50;;;2.40;;
57395;SDS011;43222;52.912;6.940;2023-04-12T09:24:20;5.40;;;2.70;;
57395;SDS011;43222;52.912;6.940;2023-04-12T09:27:02;5.40;;;2.60;;
57395;SDS011;43222;52.912;6.940;2023-04-12T09:29:29;6.15;;;2.50;;
57395;SDS011;43222;52.912;6.940;2023-04-12T09:31:56;5.50;;;2.65;;
57395;SDS011;43222;52.912;6.940;2023-04-12T09:34:22;5.00;;;2.80;;
57395;SDS011;43222;52.912;6.940;2023-04-12T09:36:49;5.68;;;2.80;;
57395;SDS011;43222;52.912;6.940;2023-04-12T09:39:15;5.40;;;2.83;;
57395;SDS011;43222;52.912;6.940;2023-04-12T09:41:41;7.07;;;3.25;;
57395;SDS011;43222;52.912;6.940;2023-04-12T09:44:07;6.15;;;3.40;;
57395;SDS011;43222;52.912;6.940;2023-04-12T09:46:34;5.72;;;3.50;;
57395;SDS011;43222;52.912;6.940;2023-04-12T09:49:01;5.47;;;3.80;;
57395;SDS011;43222;52.912;6.940;2023-04-12T09:51:28;5.78;;;3.90;;
57395;SDS011;43222;52.912;6.940;2023-04-12T09:54:00;7.97;;;4.63;;
57395;SDS011;43222;52.912;6.940;2023-04-12T09:56:30;8.70;;;4.43;;
57395;SDS011;43222;52.912;6.940;2023-04-12T09:59:00;7.00;;;4.35;;
57395;SDS011;43222;52.912;6.940;2023-04-12T10:01:28;8.75;;;5.00;;
57395;SDS011;43222;52.912;6.940;2023-04-12T10:03:54;6.78;;;4.68;;
57395;SDS011;43222;52.912;6.940;2023-04-12T10:06:21;7.43;;;4.35;;
57395;SDS011;43222;52.912;6.940;2023-04-12T10:08:48;6.32;;;5.10;;
57395;SDS011;43222;52.912;6.940;2023-04-12T10:11:14;7.63;;;4.63;;
57395;SDS011;43222;52.912;6.940;2023-04-12T10:13:41;8.15;;;5.38;;
57395;SDS011;43222;52.912;6.940;2023-04-12T10:16:08;8.02;;;5.75;;
57395;SDS011;43222;52.912;6.940;2023-04-12T10:18:35;7.43;;;6.18;;
57395;SDS011;43222;52.912;6.940;2023-04-12T10:21:01;8.25;;;6.00;;
57395;SDS011;43222;52.912;6.940;2023-04-12T10:23:28;6.82;;;4.50;;
57395;SDS011;43222;52.912;6.940;2023-04-12T10:25:56;7.05;;;4.63;;
57395;SDS011;43222;52.912;6.940;2023-04-12T10:28:23;7.03;;;4.55;;
57395;SDS011;43222;52.912;6.940;2023-04-12T10:30:49;9.40;;;5.10;;
57395;SDS011;43222;52.912;6.940;2023-04-12T10:33:23;7.97;;;4.90;;
57395;SDS011;43222;52.912;6.940;2023-04-12T10:35:59;8.30;;;4.82;;
57395;SDS011;43222;52.912;6.940;2023-04-12T10:38:43;6.88;;;4.47;;
57395;SDS011;43222;52.912;6.940;2023-04-12T10:41:11;7.55;;;4.55;;
57395;SDS011;43222;52.912;6.940;2023-04-12T10:43:37;7.72;;;3.92;;
57395;SDS011;43222;52.912;6.940;2023-04-12T10:46:04;7.57;;;3.63;;
57395;SDS011;43222;52.912;6.940;2023-04-12T10:48:34;6.38;;;3.75;;
57395;SDS011;43222;52.912;6.940;2023-04-12T10:51:10;6.68;;;3.83;;
57395;SDS011;43222;52.912;6.940;2023-04-12T10:53:38;7.97;;;4.20;;
57395;SDS011;43222;52.912;6.940;2023-04-12T11:01:15;6.75;;;4.50;;
57395;SDS011;43222;52.912;6.940;2023-04-12T11:09:16;8.68;;;3.65;;
57395;SDS011;43222;52.912;6.940;2023-04-12T11:11:42;6.63;;;3.60;;
57395;SDS011;43222;52.912;6.940;2023-04-12T11:14:09;7.20;;;3.72;;
57395;SDS011;43222;52.912;6.940;2023-04-12T11:17:17;7.75;;;3.70;;
57395;SDS011;43222;52.912;6.940;2023-04-12T11:19:21;9.68;;;4.28;;
57395;SDS011;43222;52.912;6.940;2023-04-12T11:21:47;10.52;;;3.83;;
57395;SDS011;43222;52.912;6.940;2023-04-12T11:24:14;8.75;;;4.10;;
57395;SDS011;43222;52.912;6.940;2023-04-12T11:26:40;12.45;;;3.72;;
57395;SDS011;43222;52.912;6.940;2023-04-12T11:29:06;12.57;;;3.45;;
57395;SDS011;43222;52.912;6.940;2023-04-12T11:31:33;8.50;;;3.40;;
57395;SDS011;43222;52.912;6.940;2023-04-12T11:33:59;8.57;;;3.67;;
57395;SDS011;43222;52.912;6.940;2023-04-12T11:36:25;9.48;;;3.40;;
57395;SDS011;43222;52.912;6.940;2023-04-12T11:38:52;11.68;;;3.40;;
57395;SDS011;43222;52.912;6.940;2023-04-12T11:41:20;11.32;;;3.55;;
57395;SDS011;43222;52.912;6.940;2023-04-12T11:43:46;14.40;;;3.40;;
57395;SDS011;43222;52.912;6.940;2023-04-12T11:46:13;12.70;;;3.13;;
57395;SDS011;43222;52.912;6.940;2023-04-12T11:48:43;10.15;;;2.88;;
57395;SDS011;43222;52.912;6.940;2023-04-12T11:51:22;10.18;;;3.20;;
57395;SDS011;43222;52.912;6.940;2023-04-12T11:53:53;9.85;;;2.83;;
57395;SDS011;43222;52.912;6.940;2023-04-12T11:56:19;11.50;;;3.05;;
57395;SDS011;43222;52.912;6.940;2023-04-12T11:58:46;11.73;;;3.10;;
57395;SDS011;43222;52.912;6.940;2023-04-12T12:01:15;12.45;;;3.08;;
57395;SDS011;43222;52.912;6.940;2023-04-12T12:03:42;8.43;;;2.50;;
57395;SDS011;43222;52.912;6.940;2023-04-12T12:06:08;14.50;;;2.83;;
57395;SDS011;43222;52.912;6.940;2023-04-12T12:08:35;11.02;;;2.60;;
57395;SDS011;43222;52.912;6.940;2023-04-12T12:11:01;11.45;;;2.35;;
57395;SDS011;43222;52.912;6.940;2023-04-12T12:13:42;12.88;;;2.72;;
57395;SDS011;43222;52.912;6.940;2023-04-12T12:16:08;11.05;;;2.83;;
57395;SDS011;43222;52.912;6.940;2023-04-12T12:18:38;10.25;;;2.30;;
57395;SDS011;43222;52.912;6.940;2023-04-12T12:21:07;11.38;;;2.72;;
57395;SDS011;43222;52.912;6.940;2023-04-12T12:23:33;10.23;;;2.30;;
57395;SDS011;43222;52.912;6.940;2023-04-12T12:26:00;9.95;;;2.58;;
57395;SDS011;43222;52.912;6.940;2023-04-12T12:28:27;11.68;;;2.50;;
57395;SDS011;43222;52.912;6.940;2023-04-12T12:30:56;8.68;;;2.10;;
57395;SDS011;43222;52.912;6.940;2023-04-12T12:33:23;12.73;;;2.60;;
57395;SDS011;43222;52.912;6.940;2023-04-12T12:35:56;9.15;;;2.40;;
57395;SDS011;43222;52.912;6.940;2023-04-12T12:38:22;11.27;;;2.45;;
57395;SDS011;43222;52.912;6.940;2023-04-12T12:40:48;13.55;;;2.67;;
57395;SDS011;43222;52.912;6.940;2023-04-12T12:43:18;15.00;;;3.00;;
57395;SDS011;43222;52.912;6.940;2023-04-12T12:45:45;11.10;;;2.10;;
57395;SDS011;43222;52.912;6.940;2023-04-12T12:48:11;11.80;;;2.55;;
57395;SDS011;43222;52.912;6.940;2023-04-12T12:50:37;10.70;;;2.22;;
57395;SDS011;43222;52.912;6.940;2023-04-12T12:53:04;10.95;;;2.83;;
57395;SDS011;43222;52.912;6.940;2023-04-12T12:55:30;15.02;;;2.80;;
57395;SDS011;43222;52.912;6.940;2023-04-12T12:57:57;10.30;;;2.50;;
57395;SDS011;43222;52.912;6.940;2023-04-12T13:00:24;12.70;;;2.47;;
57395;SDS011;43222;52.912;6.940;2023-04-12T13:02:50;11.65;;;2.45;;
57395;SDS011;43222;52.912;6.940;2023-04-12T13:05:17;13.25;;;2.60;;
57395;SDS011;43222;52.912;6.940;2023-04-12T13:07:44;13.95;;;2.75;;
57395;SDS011;43222;52.912;6.940;2023-04-12T13:10:10;13.25;;;2.50;;
57395;SDS011;43222;52.912;6.940;2023-04-12T13:12:37;11.68;;;2.35;;
57395;SDS011;43222;52.912;6.940;2023-04-12T13:15:03;10.45;;;1.98;;
57395;SDS011;43222;52.912;6.940;2023-04-12T13:17:29;12.27;;;2.60;;
57395;SDS011;43222;52.912;6.940;2023-04-12T13:19:56;11.20;;;2.28;;
57395;SDS011;43222;52.912;6.940;2023-04-12T13:22:22;10.65;;;2.40;;
57395;SDS011;43222;52.912;6.940;2023-04-12T13:24:49;10.38;;;2.45;;
57395;SDS011;43222;52.912;6.940;2023-04-12T13:27:15;11.95;;;2.42;;
57395;SDS011;43222;52.912;6.940;2023-04-12T13:29:41;13.30;;;2.60;;
57395;SDS011;43222;52.912;6.940;2023-04-12T13:32:07;15.40;;;2.50;;
57395;SDS011;43222;52.912;6.940;2023-04-12T13:34:34;12.05;;;2.40;;
57395;SDS011;43222;52.912;6.940;2023-04-12T13:37:00;16.65;;;2.88;;
57395;SDS011;43222;52.912;6.940;2023-04-12T13:39:26;17.25;;;2.67;;
57395;SDS011;43222;52.912;6.940;2023-04-12T13:41:52;13.77;;;2.95;;
57395;SDS011;43222;52.912;6.940;2023-04-12T13:44:19;11.40;;;2.45;;
57395;SDS011;43222;52.912;6.940;2023-04-12T13:46:45;7.15;;;1.30;;
57395;SDS011;43222;52.912;6.940;2023-04-12T13:49:14;5.95;;;1.10;;
57395;SDS011;43222;52.912;6.940;2023-04-12T13:51:40;5.88;;;1.10;;
57395;SDS011;43222;52.912;6.940;2023-04-12T13:54:06;4.72;;;0.95;;
57395;SDS011;43222;52.912;6.940;2023-04-12T13:56:32;5.45;;;0.88;;
57395;SDS011;43222;52.912;6.940;2023-04-12T13:58:58;6.90;;;1.20;;
57395;SDS011;43222;52.912;6.940;2023-04-12T14:01:25;6.53;;;1.30;;
57395;SDS011;43222;52.912;6.940;2023-04-12T14:03:51;6.50;;;1.25;;
57395;SDS011;43222;52.912;6.940;2023-04-12T14:06:21;9.23;;;1.60;;
57395;SDS011;43222;52.912;6.940;2023-04-12T14:08:47;7.78;;;1.52;;
57395;SDS011;43222;52.912;6.940;2023-04-12T14:11:13;9.50;;;1.60;;
57395;SDS011;43222;52.912;6.940;2023-04-12T14:13:39;9.23;;;1.70;;
57395;SDS011;43222;52.912;6.940;2023-04-12T14:16:05;9.68;;;2.05;;
57395;SDS011;43222;52.912;6.940;2023-04-12T14:18:32;9.55;;;1.80;;
57395;SDS011;43222;52.912;6.940;2023-04-12T14:20:58;13.85;;;3.03;;
57395;SDS011;43222;52.912;6.940;2023-04-12T14:23:24;11.52;;;2.58;;
57395;SDS011;43222;52.912;6.940;2023-04-12T14:25:51;10.88;;;2.17;;
57395;SDS011;43222;52.912;6.940;2023-04-12T14:28:17;10.88;;;2.72;;
57395;SDS011;43222;52.912;6.940;2023-04-12T14:30:45;13.93;;;2.35;;
57395;SDS011;43222;52.912;6.940;2023-04-12T14:33:14;10.60;;;2.30;;
57395;SDS011;43222;52.912;6.940;2023-04-12T14:35:41;12.68;;;2.15;;
57395;SDS011;43222;52.912;6.940;2023-04-12T14:38:07;9.15;;;1.70;;
57395;SDS011;43222;52.912;6.940;2023-04-12T14:40:33;9.30;;;1.80;;
57395;SDS011;43222;52.912;6.940;2023-04-12T14:42:59;11.75;;;2.80;;
57395;SDS011;43222;52.912;6.940;2023-04-12T14:45:26;10.23;;;2.83;;
57395;SDS011;43222;52.912;6.940;2023-04-12T14:47:52;11.38;;;3.17;;
57395;SDS011;43222;52.912;6.940;2023-04-12T14:50:18;11.98;;;3.42;;
57395;SDS011;43222;52.912;6.940;2023-04-12T14:52:45;10.05;;;2.50;;
57395;SDS011;43222;52.912;6.940;2023-04-12T14:55:11;6.80;;;1.23;;
57395;SDS011;43222;52.912;6.940;2023-04-12T14:57:38;12.60;;;3.20;;
57395;SDS011;43222;52.912;6.940;2023-04-12T15:00:05;8.13;;;2.80;;
57395;SDS011;43222;52.912;6.940;2023-04-12T15:02:37;9.77;;;2.47;;
57395;SDS011;43222;52.912;6.940;2023-04-12T15:05:03;4.68;;;1.00;;